Flight Track Log - Related Links

Times and Time Zones

All times are in EDT time to prevent confusion due to time zone crossing. See the BRG605 flight status page for this flight to view local times or setup timezone preferences in your user account.

Time Position Orientation Groundspeed Altitude Reporting Facility
EDT Latitude Longitude Course Direction KTS MPH feet Rate Location/Type
Fri 10:18:15 PM 66.8760 -162.6100 201° Southwest  Level FlightAware
Fri 10:19:15 PM 66.8413 -162.6558 199° South  Level FlightAware
Fri 10:20:15 PM 66.8065 -162.7014 195° South  Level FlightAware
Fri 10:21:15 PM 66.7718 -162.7470 182° South  Level FlightAware
Fri 10:22:05 PM 66.7333 -162.7500 211° Southwest 150 173 5,100  Level Anchorage Center
Fri 10:23:05 PM 66.7000 -162.8000 211° Southwest 150 173 6,000 893 Climbing Anchorage Center
Fri 10:24:06 PM 66.6667 -162.8500 218° Southwest 160 184 6,900 1,736 Climbing Anchorage Center
Fri 10:25:06 PM 66.6333 -162.9167 211° Southwest 150 173 9,500 950 Climbing Anchorage Center
Fri 10:26:06 PM 66.6000 -162.9667 211° Southwest 150 173 8,800 -248 Descending Anchorage Center
Fri 10:27:07 PM 66.5667 -163.0167 208° Southwest 180 207 9,000 595 Climbing Anchorage Center
Fri 10:28:07 PM 66.5167 -163.0833 211° Southwest 150 173 10,000 500 Climbing Anchorage Center
Fri 10:29:07 PM 66.4833 -163.1333 202° Southwest 180 207 10,000  Level Anchorage Center
Fri 10:30:08 PM 66.4333 -163.1833 211° Southwest 170 196 10,000  Level Anchorage Center
Fri 10:31:08 PM 66.4000 -163.2333 202° Southwest 170 196 10,000  Level Anchorage Center
Fri 10:32:08 PM 66.3500 -163.2833 219° Southwest 170 196 10,000  Level Anchorage Center
Fri 10:33:09 PM 66.3167 -163.3500 202° Southwest 170 196 10,000  Level Anchorage Center
Fri 10:34:09 PM 66.2667 -163.4000 208° Southwest 180 207 10,000  Level Anchorage Center
Fri 10:35:09 PM 66.2167 -163.4667 211° Southwest 170 196 10,000  Level Anchorage Center
Fri 10:36:10 PM 66.1833 -163.5167 202° Southwest 170 196 10,000  Level Anchorage Center
Fri 10:37:10 PM 66.1333 -163.5667 211° Southwest 180 207 10,000  Level Anchorage Center
Fri 10:38:10 PM 66.1000 -163.6167 208° Southwest 160 184 10,000  Level Anchorage Center
Fri 10:39:11 PM 66.0500 -163.6833 211° Southwest 170 196 10,000  Level Anchorage Center
Fri 10:40:11 PM 66.0167 -163.7333 202° Southwest 170 196 10,000  Level Anchorage Center
Fri 10:41:11 PM 65.9833 -163.7667 209° Southwest 170 196 10,000  Level Anchorage Center
Fri 10:42:11 PM 65.9333 -163.8333 202° Southwest 180 207 10,000  Level Anchorage Center
Fri 10:43:12 PM 65.8833 -163.8833 212° Southwest 170 196 10,000  Level Anchorage Center
Fri 10:44:12 PM 65.8500 -163.9333 202° Southwest 170 196 10,000  Level Anchorage Center
Fri 10:45:12 PM 65.8000 -163.9833 212° Southwest 170 196 10,000  Level Anchorage Center
Fri 10:46:13 PM 65.7667 -164.0333 202° Southwest 170 196 10,000  Level Anchorage Center
Fri 10:47:13 PM 65.7167 -164.0833 212° Southwest 170 196 10,000  Level Anchorage Center
Fri 10:48:13 PM 65.6833 -164.1333 202° Southwest 170 196 10,000  Level Anchorage Center
Fri 10:49:14 PM 65.6333 -164.1833 202° Southwest 170 196 10,000  Level Anchorage Center
Fri 10:50:14 PM 65.5833 -164.2333 202° Southwest 190 219 10,000  Level Anchorage Center
Fri 10:51:15 PM 65.5500 -164.2667 209° Southwest 180 207 10,000  Level Anchorage Center
Fri 10:52:15 PM 65.5000 -164.3333 212° Southwest 170 196 10,000  Level Anchorage Center
Fri 10:53:16 PM 65.4667 -164.3833 203° Southwest 160 184 10,000  Level Anchorage Center
Fri 10:54:16 PM 65.4167 -164.4333 196° South 180 207 10,000  Level Anchorage Center
Fri 10:55:16 PM 65.3667 -164.4667 220° Southwest 160 184 10,000  Level Anchorage Center
Fri 10:56:17 PM 65.3333 -164.5333 196° South 170 196 10,000  Level Anchorage Center
Fri 10:57:17 PM 65.2833 -164.5667 212° Southwest 170 196 10,000 -200 Level Anchorage Center
Fri 10:58:17 PM 65.2500 -164.6167 203° Southwest 170 196 9,600 -545 Descending Anchorage Center
Fri 10:59:18 PM 65.2000 -164.6667 209° Southwest 180 207 8,900 -248 Descending Anchorage Center
Fri 11:00:18 PM 65.1500 -164.7333 212° Southwest 160 184 9,100 400 Climbing Anchorage Center
Fri 11:01:18 PM 65.1167 -164.7833 203° Southwest 180 207 9,700 545 Climbing Anchorage Center
Fri 11:02:19 PM 65.0667 -164.8333 207° Southwest 180 207 10,200 -928 Climbing Anchorage Center
Fri 11:04:19 PM 64.9833 -164.9333 209° Southwest 170 196 6,900 -1,061 Descending Anchorage Center
Fri 11:05:20 PM 64.9333 -165.0000 212° Southwest 150 173 7,000 50 Climbing Anchorage Center
Fri 11:06:20 PM 64.9000 -165.0500 210° Southwest 170 196 7,000 -200 Level Anchorage Center
Fri 11:07:20 PM 64.8500 -165.1167 213° Southwest 170 196 6,600 -550 Descending Anchorage Center
Fri 11:08:20 PM 64.8167 -165.1667 210° Southwest 180 207 5,900 -744 Descending Anchorage Center
Fri 11:09:21 PM 64.7667 -165.2333 220° Southwest 170 196 5,100 -744 Descending Anchorage Center
Fri 11:10:21 PM 64.7333 -165.3000 194° South 170 196 4,400 -700 Descending Anchorage Center
Fri 11:19:15 PM 64.5000 -165.4333 337° Northwest  Level FlightAware
Fri 11:20:15 PM 64.5411 -165.4735 157° South  Level Estimated
Fri 11:21:15 PM 64.5000 -165.4333 337° Northwest  Level FlightAware
Fri 11:22:15 PM 64.5411 -165.4735 157° South  Level Estimated
Fri 11:23:15 PM 64.5000 -165.4333 337° Northwest  Level FlightAware
Fri 11:24:15 PM 64.5411 -165.4735 157° South  Level Estimated
Fri 11:25:15 PM 64.5000 -165.4333 337° Northwest  Level FlightAware
Fri 11:26:15 PM 64.5411 -165.4735 157° South  Level Estimated
Fri 11:27:15 PM 64.5000 -165.4333 337° Northwest  Level FlightAware
Fri 11:28:15 PM 64.5411 -165.4735 157° South  Level Estimated
Fri 11:29:15 PM 64.5000 -165.4333 337° Northwest  Level FlightAware
Fri 11:30:15 PM 64.5411 -165.4735 157° South  Level Estimated
Fri 11:31:15 PM 64.5000 -165.4333 337° Northwest  Level FlightAware
Fri 11:32:15 PM 64.5411 -165.4735 157° South  Level Estimated
Fri 11:33:15 PM 64.5000 -165.4333 157° South  Level FlightAware

Login

Don't have an account? Register now (free) for customized features, flight alerts, and more!